Julesburg, Colorado
Current Conditions -  °F | °C
As of 11:15 AM on Friday 31 Oct 2014 (Local Time) from KOGA Reporting Station
Scattered Clouds Scattered Clouds  
Wind Chill: 31°   Ceiling: Unl
Heat Index: 38°   Visibility: 10mi
Dew Point: 29°   Wind: 10mph
Humidity: 70%   Direction: 130°SE
Pressure: 30.45"   Gusts: 16mph
Location:  40.99°N, 102.26°W
Report Text: KOGA 311715Z AUTO 13009G14KT 10SM SCT012 04/M01 A3045 RMK AO2 T00351015
Loading
Personal Weather Stations






























Interactive Weather Map
Tropical Storm Tracking
New forecast layout! Learn more

10-Day Weather Forecast

Advertisements
Track Severe Weather on mobile